Adamsville, Utah
Current Conditions -  °F | °C
As of 9:52 PM on Monday 26 Jan 2015 (Local Time) from KMLF Reporting Station
Clear Clear  
Wind Chill: 33°   Ceiling: Unl
Heat Index: 33°   Visibility: 10mi
Dew Point: 28°   Wind: 3mph
Humidity: 82%   Direction: 310°NW
Pressure: 30.2"   Gusts: NA
Location:  38.2672°N, 112.728°W
Report Text: KMLF 270452Z AUTO 31003KT 10SM CLR 01/M02 A3020 RMK AO2 SLP235 T00061022 TSNO
Loading
Personal Weather Stations






























Interactive Weather Map New forecast layout! Learn more

10-Day Weather Forecast

Advertisements
Track Severe Weather on mobile